AirNav   Bose ProFlight Series 2 Headset
 
 1423 users online  

DC16 MPD 3rd District Heliport
Washington, District of Columbia, USA

GOING TO WASHINGTON?


FAA INFORMATION EFFECTIVE 02 JANUARY 2020

Location

FAA Identifier: DC16
Lat/Long: 38-55-01.4000N 077-02-10.9160W
38-55.023333N 077-02.181933W
38.9170556,-77.0363656
(estimated)
Elevation: 130 ft. / 40 m (estimated)
Variation: 09W (1985)
Time zone: UTC -5 (UTC -4 during Daylight Saving Time)
Zip code: 20009

Heliport Operations

Heliport use: Private use. Permission required prior to landing
Activation date: 08/1981
Control tower: no
ARTCC: WASHINGTON CENTER
FSS: LEESBURG FLIGHT SERVICE STATION
Attendance: UNATNDD
Wind indicator: yes
Segmented circle: yes
Lights: FOR PERIMETER LGTS CALL 202-727-4368.

Heliport Communications

WX ASOS at DCA (4 nm S): 132.65 (703-412-8140)
WX AWOS-3 at CGS (7 nm NE): 121.225 (301-864-5497)
WX AWOS-3PT at GAI (16 nm N): 128.275 (301-977-2971)
WX AWOS-3 at FME (16 nm NE): 123.925
WX ASOS at IAD (20 nm W): PHONE 703-661-2990

Nearby radio navigation aids

VOR radial/distance  VOR name  Freq  Var
DCAr009/3.5WASHINGTON VOR/DME111.0009W
ADWr320/10.3ANDREWS VORTAC113.1010W
OTTr323/18.6NOTTINGHAM VORTAC113.7010W
AMLr101/20.1ARMEL VOR/DME113.5008W
BALr240/23.2BALTIMORE VORTAC115.1011W
FDKr160/(33.6)FREDERICK VOR109.0008W
EMIr192/34.8WESTMINSTER VORTAC117.9008W
BRVr032/37.9BROOKE VORTAC114.5009W

 
NDB name  Hdg/Dist  Freq  Var  ID
GEORGETOWN110/4.232309WGTN --. - -.
OXONN008/9.133211WDCA -.. -.-. .-
DAVEE022/15.722309WDAA -.. .- .-
ELLICOTT220/25.337111WFND ..-. -. -..

Heliport Services

Runway Information

Helipad H1

Dimensions: 40 x 40 ft. / 12 x 12 m
Surface: asphalt
ROOFTOP.
Runway edge lights: PERI
Latitude: 38-55.023333N
Longitude: 077-02.181933W
Elevation: 130.0 ft.
Traffic pattern: leftleft

Heliport Ownership and Management from official FAA records

Ownership: Publicly-owned
Owner: DISTRICT OF COLUMBIA GOV
300 INDIANA AVE NW
WASHINGTON, DC 20001
Phone 202-727-4368
Manager: MRS. ANDREWS
300 INDIANA AVE NW
WASHINGTON, DC 20001
Phone 202-727-4368

Heliport Operational Statistics

Aircraft based on the field: 4
Helicopters: 4
    

Additional Remarks

A52-H1 FLAG POLE NE OF HELIPAD.
FOR CD CTC POTOMAC APCH AT 866-599-3874.

Instrument Procedures

There are no published instrument procedures at DC16.

Some nearby airports with instrument procedures:

KDCA - Ronald Reagan Washington National Airport (4 nm S)
KCGS - College Park Airport (7 nm NE)
KADW - Joint Base Andrews (10 nm SE)
KVKX - Potomac Airfield (11 nm S)
W32 - Washington Executive Airport/Hyde Field (11 nm SE)
W00 - Freeway Airport (12 nm E)
KDAA - Davison Army Airfield (14 nm SW)
KGAI - Montgomery County Airpark (16 nm N)
KFME - Tipton Airport (16 nm NE)
2W5 - Maryland Airport (19 nm S)
 
Loc | Ops | Rwys | IFR | FBO | Links
Com | Nav | Svcs | Stats | Notes
Area around DC16 (MPD 3rd District Heliport)
 
Road maps at: MapQuest Bing Google
 
Aerial photo
No photo
 
Sectional chart

 
Airport distance calculator
Flying to MPD 3rd District Heliport? Find the distance to fly.

From to DC16

Sunrise and sunset
Times for 17-Jan-2020
 Local
(UTC-5)
 Zulu
(UTC)
Morning civil twilight06:5711:57
Sunrise07:2612:26
Sunset17:1122:11
Evening civil twilight17:4022:40

Current date and time
Zulu (UTC)  17-Jan-2020 20:32:06
Local (UTC-5)  17-Jan-2020 15:32:06
 
METAR
KDCA 
4nm S 
171952Z 34012G16KT 10SM SCT250 04/M12 A3070 RMK AO2 SLP395 T00391117
KCGS 
7nm NE 
172008Z AUTO 35005KT 10SM CLR 02/M16 A3071 RMK AO1 T00191165
KADW 
10nm SE 
171856Z AUTO 36013G16KT 10SM CLR 03/M12 A3068 RMK AO2 SLP399 T00281119 $
KDAA 
13nm SW 
171856Z AUTO 32009KT 10SM CLR 03/M12 A3071 RMK AO2 SLP403 T00331118 $
KFME 
16nm NE 
172006Z AUTO 36005KT 10SM CLR 01/M13 A3072 RMK AO1
KGAI 
16nm N 
171956Z AUTO VRB03KT 10SM CLR 02/M12 A3068 RMK AO2 SLP411 T00171117 FZRANO
KIAD 
19nm W 
171952Z 36009KT 10SM FEW150 BKN250 02/M12 A3070 RMK AO2 SLP399 T00221117
TAF
KDCA 
4nm S 
171734Z 1718/1824 34010KT P6SM FEW250 FM180000 36006KT P6SM FEW250 FM180300 04004KT P6SM BKN200 FM181200 15005KT 2SM -SN OVC035 FM181500 16008KT 4SM -SNPL OVC045 FM181800 18011KT 3SM -PLRA OVC030 FM182100 19011G18KT 2SM -RA OVC020
KADW 
10nm SE 
171859Z 1718/1823 34012G18KT 9999 SKC QNH3066INS BECMG 1722/1723 34006KT 9999 FEW250 QNH3066INS BECMG 1803/1804 VRB04KT 9999 BKN180 QNH3057INS BECMG 1812/1813 16012KT 9000 -SN BKN065 BKN120 620659 QNH3054INS BECMG 1814/1815 18010G15KT 3200 -SN BR BKN005 OVC060 650059 QNH3043INS BECMG 1816/1817 19010G15KT 9999 NSW SCT010 OVC100 QNH3037INS BECMG 1817/1818 18010G20KT 1600 -SN SCT010 OVC030 650309 QNH3022INS BECMG 1820/1821 18015G25KT 6000 -PL SCT004 OVC030 640309 QNH3013INS BECMG 1821/1822 18015G25
KDAA 
13nm SW 
162353Z 1623/1724 30015G25KT 9999 FEW050 FEW200 510003 QNH3008INS TEMPO 1623/1702 31025G35KT BECMG 1701/1702 31012KT 9999 FEW050 FEW200 QNH3032INS BECMG 1714/1715 34020G25KT 9999 SKC QNH3067INS BECMG 1720/1721 34012KT 9999 FEW220 QNH3064INS TX13/1623Z TNM01/1711Z
KIAD 
19nm W 
171734Z 1718/1824 34011KT P6SM FEW250 FM180000 01005KT P6SM FEW250 FM180400 VRB03KT P6SM BKN200 FM181200 15005KT 2SM -SN OVC030 FM181500 17011G18KT 4SM -SNPL OVC040 FM181800 17011G19KT 3SM -FZRAPL OVC030 FM182100 19012G20KT 2SM -RA OVC020
NOTAMs
Click for the latest NOTAMs
NOTAMs are issued by the DoD/FAA and will open in a separate window not controlled by AirNav.

 

 
 

Would you like to see your business listed on this page?

 If your business provides an interesting product or service to pilots, flight crews, aircraft, or users of the MPD 3rd District Heliport, you should consider listing it here.  To start the listing process, click on the button below
 
Add a business
 

Other Pages about MPD 3rd District Heliport

Update a link
 
Copyright © AirNav, LLC. All rights reserved. Privacy Policy  Contact